Terminal Aerodrome Forecast
Issued by NWS Quad Cities IA IL

Home | Current Version | Previous Version | Text Only | Print | Product List | Glossary On
Versions: 1 2 3 4 5 6 7 8 9 10 11 12 13 14 15 16 17 18 19 20 21 22 23 24 25 26 27 28 29 30 31
818
FTUS43 KDVN 220511 AAB
TAFDBQ
TAF AMD
KDBQ 220511Z 2205/2224 VRB03KT 1SM BR OVC025
     FM220700 VRB03KT 1/4SM FG VV001
     FM221200 31004KT 1 1/2SM BR OVC004
     FM221400 34008KT 3SM BR BKN008
     FM221600 35010KT P6SM BKN012=

USA.gov is the U.S. government's official web portal to all federal, state and local government web resources and services.